Time;durP1;ratioP1;P1;durP2;ratioP2;P2;SDS_P1;SDS_P2;PMS_P1;PMS_P2;Temp;Humidity;BMP_temperature;BMP_pressure;BME280_temperature;BME280_humidity;BME280_pressure;Samples;Min_cycle;Max_cycle;Signal;HPM_P1;HPM_P2
2022/09/18 00:01:37;;;;;;;3.30;1.88;;;22.40;87.70;;;;;;5126858;27;20184;-76
2022/09/18 00:04:07;;;;;;;5.03;2.33;;;22.40;87.80;;;;;;5128472;27;20221;-74
2022/09/18 00:06:38;;;;;;;9.02;2.40;;;22.30;87.80;;;;;;5130703;27;20662;-74
2022/09/18 00:09:09;;;;;;;5.35;1.88;;;22.30;88.00;;;;;;5126408;27;20631;-76
2022/09/18 00:11:41;;;;;;;4.10;1.75;;;22.40;88.10;;;;;;5130263;27;20244;-75
2022/09/18 00:14:12;;;;;;;5.97;1.85;;;22.40;88.30;;;;;;5128708;27;20725;-75
2022/09/18 00:16:41;;;;;;;4.28;2.17;;;22.40;88.30;;;;;;5132737;27;20192;-74
2022/09/18 00:19:10;;;;;;;7.55;2.13;;;22.40;88.30;;;;;;5130109;27;20209;-78
2022/09/18 00:21:40;;;;;;;4.43;1.70;;;22.40;88.30;;;;;;5121221;27;20184;-74
2022/09/18 00:24:09;;;;;;;4.97;2.50;;;22.40;88.30;;;;;;5124275;27;20597;-75
2022/09/18 00:26:39;;;;;;;3.22;1.80;;;22.40;88.20;;;;;;5126994;27;20269;-75
2022/09/18 00:29:07;;;;;;;5.57;1.92;;;22.40;88.20;;;;;;5126888;27;20288;-74
2022/09/18 00:31:36;;;;;;;7.47;2.50;;;22.40;88.20;;;;;;5128655;27;20188;-74
2022/09/18 00:34:07;;;;;;;5.35;2.38;;;22.40;88.30;;;;;;5129681;27;20215;-75
2022/09/18 00:36:37;;;;;;;6.65;2.38;;;22.40;88.30;;;;;;5126530;27;20181;-75
2022/09/18 00:39:05;;;;;;;6.75;2.70;;;22.30;88.40;;;;;;5127532;27;20623;-75
2022/09/18 00:41:36;;;;;;;5.88;2.97;;;22.30;88.40;;;;;;5125785;27;20196;-74
2022/09/18 00:44:36;;;;;;;5.18;2.58;;;22.30;88.30;;;;;;5126183;27;20240;-75
2022/09/18 00:47:29;;;;;;;6.13;2.80;;;22.30;88.40;;;;;;5127086;27;21746;-74
2022/09/18 00:50:03;;;;;;;9.48;2.95;;;22.30;88.40;;;;;;5126195;27;20225;-74
2022/09/18 00:52:40;;;;;;;9.15;2.97;;;22.30;88.30;;;;;;5120306;27;20215;-75
2022/09/18 00:55:10;;;;;;;5.57;2.97;;;22.20;88.30;;;;;;5123576;27;20605;-76
2022/09/18 00:57:43;;;;;;;6.00;2.80;;;22.20;88.40;;;;;;5128256;27;20192;-74
2022/09/18 01:00:14;;;;;;;8.65;3.13;;;22.20;88.60;;;;;;5122765;27;20672;-75
2022/09/18 01:02:44;;;;;;;9.88;2.58;;;22.20;88.80;;;;;;5128464;27;20284;-74
2022/09/18 01:05:14;;;;;;;6.55;2.47;;;22.10;89.30;;;;;;5127825;27;20645;-75
2022/09/18 01:07:54;;;;;;;4.43;2.33;;;22.00;90.20;;;;;;5124139;27;20256;-75
2022/09/18 01:10:38;;;;;;;7.90;2.35;;;22.00;90.80;;;;;;5130230;27;20188;-75
2022/09/18 01:13:16;;;;;;;5.32;1.90;;;22.00;90.50;;;;;;5125423;27;21576;-74
2022/09/18 01:15:52;;;;;;;5.07;2.08;;;22.00;90.50;;;;;;5127300;27;20228;-75
2022/09/18 01:18:29;;;;;;;3.03;1.35;;;21.90;90.70;;;;;;5124997;27;20184;-74
2022/09/18 01:21:11;;;;;;;3.17;1.58;;;21.90;91.00;;;;;;5116274;27;20196;-74
2022/09/18 01:24:19;;;;;;;3.90;1.85;;;21.80;91.10;;;;;;5120295;27;20202;-75
2022/09/18 01:26:54;;;;;;;5.47;1.75;;;21.80;91.20;;;;;;5130673;27;20252;-74
2022/09/18 01:29:34;;;;;;;5.18;1.63;;;21.80;91.20;;;;;;5122659;27;20728;-74
2022/09/18 01:32:08;;;;;;;4.05;1.60;;;21.70;91.60;;;;;;5126003;27;20276;-74
2022/09/18 01:34:44;;;;;;;3.05;1.67;;;21.70;91.60;;;;;;5130876;27;20773;-76
2022/09/18 01:37:19;;;;;;;4.65;2.47;;;21.60;91.80;;;;;;5127717;27;20184;-73
2022/09/18 01:39:53;;;;;;;5.05;1.80;;;21.60;91.90;;;;;;5123795;27;20207;-75
2022/09/18 01:42:25;;;;;;;6.05;2.35;;;21.60;92.20;;;;;;5127377;27;20189;-75
2022/09/18 01:44:59;;;;;;;5.07;2.47;;;21.60;92.30;;;;;;5126075;27;20185;-74
2022/09/18 01:47:32;;;;;;;8.18;2.40;;;21.60;92.50;;;;;;5128258;27;20240;-74
2022/09/18 01:50:02;;;;;;;7.15;2.50;;;21.50;92.80;;;;;;5128269;27;20188;-74
2022/09/18 01:52:35;;;;;;;7.38;3.42;;;21.50;92.90;;;;;;5120476;27;20196;-75
2022/09/18 01:55:09;;;;;;;5.93;2.60;;;21.50;93.20;;;;;;5129178;27;20238;-74
2022/09/18 01:57:43;;;;;;;8.23;3.38;;;21.40;93.20;;;;;;5123475;27;20210;-73
2022/09/18 02:00:13;;;;;;;6.50;2.80;;;21.40;93.20;;;;;;5121768;27;20220;-74
2022/09/18 02:02:46;;;;;;;5.07;2.70;;;21.40;93.10;;;;;;5122540;28;20216;-74
2022/09/18 02:05:19;;;;;;;10.15;2.58;;;21.40;93.00;;;;;;5127547;27;20192;-75
2022/09/18 02:07:53;;;;;;;4.78;2.35;;;21.40;92.90;;;;;;5130328;27;20200;-73
2022/09/18 02:10:24;;;;;;;8.70;2.42;;;21.40;92.70;;;;;;5129449;27;20814;-75
2022/09/18 02:12:55;;;;;;;4.60;2.05;;;21.30;92.50;;;;;;5125336;27;20667;-74
2022/09/18 02:15:27;;;;;;;4.57;1.92;;;21.30;92.50;;;;;;5124177;27;20293;-73
2022/09/18 02:17:58;;;;;;;5.70;2.03;;;21.30;92.10;;;;;;5122120;28;20237;-73
2022/09/18 02:20:29;;;;;;;4.72;0.93;;;21.30;91.20;;;;;;5127834;27;20237;-74
2022/09/18 02:23:00;;;;;;;2.47;0.50;;;21.30;90.30;;;;;;5124027;27;20193;-76
2022/09/18 02:25:33;;;;;;;2.97;0.60;;;21.20;87.10;;;;;;5123476;28;20192;-75
2022/09/18 02:28:03;;;;;;;0.93;0.60;;;21.10;85.20;;;;;;5120638;27;20639;-73
2022/09/18 02:30:33;;;;;;;1.40;0.80;;;21.10;83.60;;;;;;5127655;27;20788;-74
2022/09/18 02:33:02;;;;;;;2.35;0.40;;;21.00;82.30;;;;;;5126979;27;20261;-74
2022/09/18 02:35:41;;;;;;;1.40;0.50;;;21.00;82.70;;;;;;5128372;27;20228;-72
2022/09/18 02:38:17;;;;;;;4.80;0.40;;;20.90;81.90;;;;;;5126890;27;20185;-75
2022/09/18 02:40:57;;;;;;;1.58;0.40;;;20.90;80.90;;;;;;5127699;27;20184;-74
2022/09/18 02:43:37;;;;;;;1.77;0.38;;;20.80;80.80;;;;;;5125254;27;20188;-74
2022/09/18 02:46:16;;;;;;;1.02;0.40;;;20.80;80.70;;;;;;5127217;27;20613;-74
2022/09/18 02:48:54;;;;;;;1.10;0.30;;;20.70;80.30;;;;;;5122744;28;20292;-74
2022/09/18 02:51:31;;;;;;;1.85;0.30;;;20.70;80.00;;;;;;5125082;28;20231;-74
2022/09/18 02:54:06;;;;;;;1.48;0.35;;;20.60;79.70;;;;;;5123594;28;20231;-74
2022/09/18 02:56:40;;;;;;;1.80;0.80;;;20.50;79.40;;;;;;5123317;28;20253;-72
2022/09/18 02:59:12;;;;;;;2.45;0.45;;;20.50;79.10;;;;;;5122715;27;20543;-74
2022/09/18 03:01:44;;;;;;;2.17;0.43;;;20.40;79.50;;;;;;5124790;27;20548;-75
2022/09/18 03:04:15;;;;;;;8.25;1.15;;;20.40;80.00;;;;;;5126498;28;20202;-75
2022/09/18 03:06:43;;;;;;;3.00;0.45;;;20.20;80.30;;;;;;5127211;27;20185;-74
2022/09/18 03:09:12;;;;;;;3.88;0.40;;;20.10;80.80;;;;;;5114876;28;20954;-75
2022/09/18 03:11:40;;;;;;;5.78;0.40;;;20.10;81.20;;;;;;5121008;27;20193;-74
2022/09/18 03:14:08;;;;;;;4.20;0.60;;;20.00;81.30;;;;;;5131830;27;20188;-74
2022/09/18 03:16:37;;;;;;;0.55;0.30;;;19.90;81.40;;;;;;5124924;27;20234;-73
2022/09/18 03:19:06;;;;;;;6.80;0.80;;;19.80;81.20;;;;;;5132789;27;20197;-74
2022/09/18 03:21:35;;;;;;;2.73;0.40;;;19.80;81.10;;;;;;5123105;27;20188;-74
2022/09/18 03:24:03;;;;;;;0.73;0.20;;;19.70;80.30;;;;;;5123633;27;20620;-74
2022/09/18 03:26:31;;;;;;;3.37;0.40;;;19.60;79.40;;;;;;5129205;27;20192;-73
2022/09/18 03:29:00;;;;;;;2.43;0.30;;;19.50;79.50;;;;;;5130337;27;20831;-76
2022/09/18 03:31:28;;;;;;;5.43;0.40;;;19.40;79.50;;;;;;5124743;27;20219;-75
2022/09/18 03:33:56;;;;;;;0.73;0.20;;;19.30;79.10;;;;;;5126839;27;20594;-74
2022/09/18 03:36:26;;;;;;;0.30;0.20;;;19.20;79.20;;;;;;5125877;27;20189;-76
2022/09/18 03:38:54;;;;;;;0.40;0.30;;;19.10;78.80;;;;;;5129986;27;20235;-73
2022/09/18 03:41:23;;;;;;;5.80;0.33;;;19.00;78.90;;;;;;5130027;27;20188;-75
2022/09/18 03:43:51;;;;;;;0.93;0.20;;;19.00;78.90;;;;;;5129826;27;20672;-75
2022/09/18 03:46:22;;;;;;;1.80;0.20;;;18.90;78.30;;;;;;5126605;27;20275;-73
2022/09/18 03:48:51;;;;;;;2.00;0.30;;;18.80;77.90;;;;;;5120651;27;20216;-73
2022/09/18 03:51:20;;;;;;;0.40;0.20;;;18.70;77.40;;;;;;5129339;27;20271;-73
2022/09/18 03:53:51;;;;;;;4.43;0.30;;;18.60;77.20;;;;;;5128232;27;20232;-74
2022/09/18 03:56:19;;;;;;;3.83;0.20;;;18.50;77.20;;;;;;5126821;27;20192;-73
2022/09/18 03:58:47;;;;;;;1.43;0.20;;;18.40;77.30;;;;;;5122129;27;20193;-73
2022/09/18 04:01:16;;;;;;;2.37;0.27;;;18.30;77.10;;;;;;5125776;27;20224;-75
2022/09/18 04:03:44;;;;;;;2.30;0.30;;;18.30;77.10;;;;;;5127354;27;20228;-73
2022/09/18 04:06:12;;;;;;;1.20;0.30;;;18.20;77.20;;;;;;5124127;27;20230;-75
2022/09/18 04:08:40;;;;;;;0.63;0.30;;;18.10;77.10;;;;;;5127063;27;20307;-73
2022/09/18 04:11:12;;;;;;;1.63;0.23;;;18.00;77.20;;;;;;5131471;27;20220;-72
2022/09/18 04:13:40;;;;;;;6.63;0.50;;;17.90;77.50;;;;;;5128339;27;20231;-75
2022/09/18 04:16:09;;;;;;;0.40;0.30;;;17.90;77.40;;;;;;5128320;27;20645;-73
2022/09/18 04:18:37;;;;;;;3.77;0.30;;;17.80;77.60;;;;;;5129070;27;20191;-75
2022/09/18 04:21:06;;;;;;;0.70;0.30;;;17.80;77.70;;;;;;5117126;27;20208;-76
2022/09/18 04:23:34;;;;;;;0.83;0.30;;;17.70;77.80;;;;;;5125656;27;20249;-75
2022/09/18 04:26:07;;;;;;;0.50;0.50;;;17.70;77.80;;;;;;5129960;27;20203;-74
2022/09/18 04:28:38;;;;;;;3.10;0.47;;;17.60;77.90;;;;;;5122732;27;20400;-75
2022/09/18 04:31:06;;;;;;;0.83;0.27;;;17.60;78.50;;;;;;5127870;27;20189;-75
2022/09/18 04:33:34;;;;;;;0.20;0.20;;;17.60;78.40;;;;;;5129642;27;20623;-75
2022/09/18 04:36:03;;;;;;;5.53;0.40;;;17.60;78.50;;;;;;5127965;27;20188;-74
2022/09/18 04:38:31;;;;;;;2.17;0.30;;;17.50;78.40;;;;;;5125685;27;20609;-73
2022/09/18 04:41:00;;;;;;;0.87;0.50;;;17.60;78.50;;;;;;5126624;27;20188;-75
2022/09/18 04:43:29;;;;;;;0.50;0.50;;;17.50;78.20;;;;;;5124627;27;20191;-76
2022/09/18 04:45:59;;;;;;;2.50;0.50;;;17.50;77.80;;;;;;5128859;27;20193;-74
2022/09/18 04:48:27;;;;;;;3.30;0.30;;;17.40;78.10;;;;;;5125393;27;20216;-74
2022/09/18 04:50:55;;;;;;;4.20;0.53;;;17.40;78.00;;;;;;5125336;27;20604;-74
2022/09/18 04:53:24;;;;;;;0.47;0.40;;;17.40;77.70;;;;;;5121919;27;20227;-74
2022/09/18 04:55:52;;;;;;;0.93;0.47;;;17.40;77.90;;;;;;5124301;27;20605;-75
2022/09/18 04:58:20;;;;;;;2.33;0.60;;;17.40;77.20;;;;;;5123467;27;20233;-75
2022/09/18 05:00:49;;;;;;;0.73;0.50;;;17.30;77.20;;;;;;5124072;27;21462;-74
2022/09/18 05:03:21;;;;;;;9.93;0.60;;;17.30;77.20;;;;;;5124502;27;20352;-73
2022/09/18 05:05:49;;;;;;;2.97;1.07;;;17.30;76.90;;;;;;5130737;27;20362;-74
2022/09/18 05:08:18;;;;;;;3.83;0.53;;;17.20;76.70;;;;;;5126783;27;20189;-72
2022/09/18 05:10:46;;;;;;;1.63;0.40;;;17.20;76.50;;;;;;5125296;27;20211;-75
2022/09/18 05:13:14;;;;;;;1.13;0.40;;;17.20;76.60;;;;;;5123934;27;20238;-76
2022/09/18 05:15:43;;;;;;;0.80;0.50;;;17.20;76.20;;;;;;5124862;27;20295;-74
2022/09/18 05:18:12;;;;;;;2.07;0.50;;;17.20;76.40;;;;;;5127912;27;20192;-74
2022/09/18 05:20:42;;;;;;;7.13;0.70;;;17.20;76.10;;;;;;5127014;27;20275;-75
2022/09/18 05:23:10;;;;;;;2.50;0.37;;;17.20;76.00;;;;;;5126403;27;20226;-74
2022/09/18 05:25:38;;;;;;;3.97;0.50;;;17.20;75.40;;;;;;5120319;27;20188;-74
2022/09/18 05:28:07;;;;;;;6.17;0.70;;;17.20;75.70;;;;;;5119762;27;20577;-75
2022/09/18 05:30:35;;;;;;;0.53;0.40;;;17.10;75.20;;;;;;5123580;27;20677;-75
2022/09/18 05:33:06;;;;;;;0.40;0.30;;;17.10;75.10;;;;;;5125384;27;20216;-74
2022/09/18 05:35:36;;;;;;;1.53;0.50;;;17.10;75.10;;;;;;5127800;27;20184;-76
2022/09/18 05:38:06;;;;;;;0.40;0.40;;;17.10;74.40;;;;;;5126274;27;20193;-75
2022/09/18 05:40:36;;;;;;;9.53;1.00;;;17.10;74.50;;;;;;5130413;27;20200;-74
2022/09/18 05:43:06;;;;;;;1.00;0.53;;;17.00;74.00;;;;;;5125181;27;20191;-76
2022/09/18 05:45:34;;;;;;;1.03;0.30;;;17.00;74.00;;;;;;5123741;27;20196;-75
2022/09/18 05:48:04;;;;;;;1.67;0.37;;;17.00;74.00;;;;;;5124220;27;20244;-75
2022/09/18 05:50:35;;;;;;;5.43;0.70;;;17.00;74.10;;;;;;5124446;27;20708;-74
2022/09/18 05:53:06;;;;;;;5.80;0.70;;;17.00;73.50;;;;;;5123538;27;20204;-73
2022/09/18 05:55:35;;;;;;;4.37;0.40;;;16.90;73.60;;;;;;5122435;27;20184;-75
2022/09/18 05:58:04;;;;;;;0.50;0.43;;;17.00;73.70;;;;;;5124051;27;20212;-76
2022/09/18 06:00:35;;;;;;;1.27;0.43;;;17.00;73.40;;;;;;5129426;28;20195;-72
2022/09/18 06:03:05;;;;;;;5.43;0.70;;;17.00;73.40;;;;;;5122881;28;20244;-73
2022/09/18 06:05:36;;;;;;;4.57;0.50;;;17.00;72.90;;;;;;5128589;28;20185;-74
2022/09/18 06:08:08;;;;;;;2.73;0.80;;;17.00;73.50;;;;;;5132031;27;20196;-75
2022/09/18 06:10:38;;;;;;;3.50;0.70;;;17.10;73.20;;;;;;5129651;27;20243;-75
2022/09/18 06:13:07;;;;;;;1.07;0.67;;;17.00;72.80;;;;;;5125624;28;20184;-75
2022/09/18 06:15:37;;;;;;;5.10;0.67;;;17.00;72.60;;;;;;5130154;28;20633;-73
2022/09/18 06:18:07;;;;;;;2.33;0.83;;;17.00;72.90;;;;;;5129670;28;20227;-75
2022/09/18 06:20:36;;;;;;;3.00;0.60;;;17.10;73.00;;;;;;5125256;27;20660;-74
2022/09/18 06:23:04;;;;;;;6.23;0.60;;;17.10;73.20;;;;;;5121565;27;20201;-76
2022/09/18 06:25:35;;;;;;;1.13;0.60;;;17.10;72.60;;;;;;5122223;28;20253;-75
2022/09/18 06:28:05;;;;;;;1.73;0.90;;;17.20;73.20;;;;;;5131488;28;20177;-74
2022/09/18 06:30:35;;;;;;;7.30;0.83;;;17.20;72.90;;;;;;5125404;28;20212;-76
2022/09/18 06:33:05;;;;;;;2.83;0.40;;;17.20;72.60;;;;;;5123852;27;20220;-75
2022/09/18 06:35:34;;;;;;;3.30;0.50;;;17.30;72.70;;;;;;5127836;28;20717;-74
2022/09/18 06:38:03;;;;;;;5.70;0.47;;;17.30;72.60;;;;;;5131716;27;20188;-74
2022/09/18 06:40:32;;;;;;;5.23;0.63;;;17.30;71.90;;;;;;5130064;27;20226;-73
2022/09/18 06:43:02;;;;;;;5.13;0.70;;;17.30;72.20;;;;;;5130383;28;20687;-74
2022/09/18 06:45:31;;;;;;;1.73;0.50;;;17.40;71.50;;;;;;5128688;27;20629;-76
2022/09/18 06:48:03;;;;;;;1.63;0.40;;;17.40;71.00;;;;;;5130541;27;20221;-75
2022/09/18 06:50:32;;;;;;;2.37;0.60;;;17.40;71.00;;;;;;5132079;27;20208;-74
2022/09/18 06:53:02;;;;;;;2.60;0.33;;;17.40;70.70;;;;;;5128976;27;20197;-74
2022/09/18 06:55:35;;;;;;;0.87;0.50;;;17.50;70.90;;;;;;5134921;27;20206;-76
2022/09/18 06:58:05;;;;;;;11.30;1.10;;;17.60;70.90;;;;;;5136906;27;20238;-73
2022/09/18 07:00:33;;;;;;;3.33;0.63;;;17.60;70.10;;;;;;5135604;27;20249;-74
2022/09/18 07:03:03;;;;;;;4.50;0.73;;;17.70;70.50;;;;;;5132723;27;20197;-74
2022/09/18 07:05:32;;;;;;;5.83;0.60;;;17.70;69.90;;;;;;5134013;27;20192;-74
2022/09/18 07:08:01;;;;;;;6.70;0.87;;;17.80;69.90;;;;;;5130471;27;20231;-73
2022/09/18 07:10:33;;;;;;;5.80;1.13;;;17.80;69.10;;;;;;5128894;27;20255;-75
2022/09/18 07:13:07;;;;;;;15.27;0.87;;;17.80;69.20;;;;;;5131698;27;20593;-75
2022/09/18 07:15:35;;;;;;;6.97;0.60;;;17.80;69.00;;;;;;5131064;27;20245;-74
2022/09/18 07:18:05;;;;;;;3.60;0.60;;;18.00;69.40;;;;;;5134093;27;20196;-73
2022/09/18 07:20:34;;;;;;;5.97;1.13;;;18.00;69.20;;;;;;5131118;27;20263;-73
2022/09/18 07:23:02;;;;;;;4.97;0.60;;;18.10;68.40;;;;;;5131005;27;20238;-74
2022/09/18 07:25:33;;;;;;;2.27;0.73;;;18.20;67.90;;;;;;5133650;27;20184;-74
2022/09/18 07:28:07;;;;;;;4.93;0.70;;;18.20;67.70;;;;;;5122647;27;20249;-76
2022/09/18 07:30:36;;;;;;;3.37;0.43;;;18.30;66.70;;;;;;5131972;27;20241;-74
2022/09/18 07:33:05;;;;;;;5.37;0.60;;;18.30;66.80;;;;;;5132119;27;20212;-75
2022/09/18 07:35:34;;;;;;;1.03;0.40;;;18.30;66.60;;;;;;5128990;27;20220;-77
2022/09/18 07:38:04;;;;;;;4.60;0.40;;;18.40;68.10;;;;;;5132656;27;20203;-76
2022/09/18 07:40:33;;;;;;;7.80;0.90;;;18.50;66.50;;;;;;5132647;27;20625;-75
2022/09/18 07:43:04;;;;;;;12.00;1.20;;;18.60;65.50;;;;;;5126244;27;20248;-76
2022/09/18 07:45:34;;;;;;;7.73;0.60;;;18.60;65.80;;;;;;5131185;27;20645;-76
2022/09/18 07:48:03;;;;;;;0.57;0.37;;;18.60;65.90;;;;;;5134289;27;20196;-77
2022/09/18 07:50:32;;;;;;;10.10;0.80;;;18.70;64.80;;;;;;5132586;27;20259;-76
2022/09/18 07:53:02;;;;;;;5.00;0.40;;;18.70;64.60;;;;;;5129176;27;20180;-75
2022/09/18 07:55:47;;;;;;;0.60;0.30;;;18.80;65.40;;;;;;5132659;27;20281;-76
2022/09/18 07:58:16;;;;;;;4.27;0.40;;;18.80;65.10;;;;;;5123774;27;20234;-74
2022/09/18 08:00:46;;;;;;;5.47;0.40;;;18.90;65.20;;;;;;5132390;27;20797;-75
2022/09/18 08:03:14;;;;;;;2.87;0.30;;;18.90;64.20;;;;;;5131227;27;20184;-74
2022/09/18 08:05:43;;;;;;;4.53;0.53;;;19.00;64.60;;;;;;5129249;27;20271;-77
2022/09/18 08:08:13;;;;;;;1.23;0.30;;;19.00;64.30;;;;;;5127902;27;20656;-76
2022/09/18 08:10:43;;;;;;;3.10;0.70;;;19.10;64.20;;;;;;5117851;27;20247;-75
2022/09/18 08:13:12;;;;;;;3.17;0.27;;;19.10;64.10;;;;;;5127511;27;20184;-75
2022/09/18 08:15:42;;;;;;;2.87;0.40;;;19.20;63.90;;;;;;5133831;27;20226;-75
2022/09/18 08:18:11;;;;;;;2.00;0.40;;;19.20;64.20;;;;;;5128739;27;20227;-76
2022/09/18 08:20:40;;;;;;;2.17;0.40;;;19.30;64.20;;;;;;5126805;27;20241;-78
2022/09/18 08:23:11;;;;;;;1.03;0.40;;;19.30;63.00;;;;;;5124351;27;20237;-77
2022/09/18 08:25:40;;;;;;;3.07;0.50;;;19.30;63.60;;;;;;5130828;27;20185;-77
2022/09/18 08:28:10;;;;;;;5.17;0.37;;;19.40;63.20;;;;;;5126619;27;20185;-77
2022/09/18 08:30:38;;;;;;;2.67;0.30;;;19.50;62.90;;;;;;5131662;27;20651;-76
2022/09/18 08:33:08;;;;;;;6.43;0.87;;;19.50;61.90;;;;;;5132074;27;20700;-75
2022/09/18 08:35:38;;;;;;;8.30;0.70;;;19.60;61.20;;;;;;5129988;27;20188;-75
2022/09/18 08:38:09;;;;;;;1.77;0.60;;;19.60;60.80;;;;;;5132890;27;20196;-74
2022/09/18 08:40:57;;;;;;;4.97;0.70;;;19.60;61.10;;;;;;5129616;27;20235;-75
2022/09/18 08:43:47;;;;;;;5.77;0.57;;;19.70;61.60;;;;;;5130197;27;20659;-74
2022/09/18 08:46:20;;;;;;;2.83;0.95;;;19.80;59.80;;;;;;5126995;27;20652;-74
2022/09/18 08:48:56;;;;;;;1.75;0.30;;;19.90;59.60;;;;;;5128783;27;20695;-75
2022/09/18 08:51:30;;;;;;;4.40;0.38;;;19.90;60.00;;;;;;5125052;27;20288;-74
2022/09/18 08:54:16;;;;;;;2.53;0.30;;;20.00;60.00;;;;;;5129887;27;20276;-75
2022/09/18 08:56:46;;;;;;;11.60;0.97;;;20.10;59.20;;;;;;5132625;27;20219;-73
2022/09/18 08:59:22;;;;;;;5.60;0.85;;;20.10;58.50;;;;;;5131231;27;20212;-74
2022/09/18 09:01:59;;;;;;;1.77;0.35;;;20.20;57.90;;;;;;5114990;27;20276;-74
2022/09/18 09:04:27;;;;;;;10.10;1.25;;;20.30;57.90;;;;;;5128416;27;20219;-76
2022/09/18 09:07:08;;;;;;;5.00;0.47;;;20.30;57.50;;;;;;5128042;27;20227;-73
2022/09/18 09:09:52;;;;;;;3.17;0.40;;;20.40;57.80;;;;;;5128445;27;20667;-75
2022/09/18 09:12:28;;;;;;;5.25;0.50;;;20.40;57.20;;;;;;5127380;27;20563;-73
2022/09/18 09:15:29;;;;;;;5.40;0.52;;;20.50;57.40;;;;;;5130340;27;20245;-73
2022/09/18 09:18:12;;;;;;;1.13;0.25;;;20.60;57.20;;;;;;5118101;27;20611;-76
2022/09/18 09:20:49;;;;;;;3.78;0.40;;;20.70;57.10;;;;;;5126822;27;20224;-75
2022/09/18 09:23:42;;;;;;;6.50;0.50;;;20.70;56.60;;;;;;5125583;27;20211;-73
2022/09/18 09:26:13;;;;;;;0.20;0.20;;;20.80;55.90;;;;;;5126561;27;20223;-75
2022/09/18 09:28:52;;;;;;;4.53;0.38;;;20.80;56.50;;;;;;5127887;27;20230;-73
2022/09/18 09:31:24;;;;;;;0.43;0.30;;;20.90;55.90;;;;;;5124889;27;20243;-73
2022/09/18 09:33:58;;;;;;;2.72;0.43;;;20.90;56.30;;;;;;5109580;27;20583;-74
2022/09/18 09:36:29;;;;;;;4.13;0.77;;;21.00;54.10;;;;;;5105722;28;20192;-75
2022/09/18 09:39:06;;;;;;;6.43;1.33;;;21.00;54.80;;;;;;5099248;28;20193;-74
2022/09/18 09:41:40;;;;;;;3.97;1.23;;;21.00;55.40;;;;;;5100955;28;20273;-75
2022/09/18 09:44:25;;;;;;;1.80;0.40;;;21.10;54.50;;;;;;5103611;28;20249;-73
2022/09/18 09:47:04;;;;;;;9.32;0.55;;;21.10;54.20;;;;;;5104057;27;20564;-73
2022/09/18 09:49:39;;;;;;;6.40;0.68;;;21.20;54.20;;;;;;5098174;28;20276;-75
2022/09/18 09:52:16;;;;;;;0.98;0.38;;;21.20;53.30;;;;;;5108259;28;20617;-77
2022/09/18 09:54:46;;;;;;;0.63;0.40;;;21.30;53.30;;;;;;5104240;28;20440;-74
2022/09/18 09:57:21;;;;;;;0.20;0.20;;;21.40;54.00;;;;;;5107499;28;20185;-75
2022/09/18 09:59:59;;;;;;;0.52;0.22;;;21.40;53.10;;;;;;5098116;28;20653;-75
2022/09/18 10:02:41;;;;;;;4.35;0.70;;;21.50;53.70;;;;;;5108431;28;20280;-73
2022/09/18 10:05:23;;;;;;;1.60;0.40;;;21.50;52.80;;;;;;5108199;28;20225;-72
2022/09/18 10:08:01;;;;;;;1.02;0.50;;;21.60;53.60;;;;;;5102682;28;20193;-77
2022/09/18 10:10:39;;;;;;;2.05;0.20;;;21.60;53.20;;;;;;5107982;28;20242;-75
2022/09/18 10:13:14;;;;;;;0.52;0.30;;;21.70;53.10;;;;;;5101120;28;20306;-75
2022/09/18 10:15:45;;;;;;;1.45;0.38;;;21.70;52.30;;;;;;5103956;28;20221;-75
2022/09/18 10:18:17;;;;;;;4.43;0.40;;;21.70;50.80;;;;;;5105430;28;20230;-76
2022/09/18 10:20:47;;;;;;;2.53;0.50;;;21.80;50.90;;;;;;5109534;28;20231;-77
2022/09/18 10:23:23;;;;;;;1.83;0.60;;;21.80;51.30;;;;;;5104760;28;20261;-75
2022/09/18 10:25:57;;;;;;;3.47;0.80;;;21.90;51.60;;;;;;5111411;28;20550;-75
2022/09/18 10:28:28;;;;;;;1.70;0.55;;;22.00;52.00;;;;;;5111328;28;20211;-77
2022/09/18 10:31:00;;;;;;;3.03;0.50;;;22.00;51.10;;;;;;5108510;28;20195;-75
2022/09/18 10:33:35;;;;;;;0.98;0.60;;;22.10;50.40;;;;;;5106708;28;20233;-76
2022/09/18 10:36:09;;;;;;;0.82;0.40;;;22.10;51.00;;;;;;5112632;28;20237;-75
2022/09/18 10:38:38;;;;;;;7.03;0.50;;;22.10;50.40;;;;;;5112832;28;20185;-76
2022/09/18 10:41:32;;;;;;;0.47;0.30;;;22.20;50.00;;;;;;5102242;28;20228;-76
2022/09/18 10:44:23;;;;;;;4.70;0.35;;;22.20;49.90;;;;;;5100118;28;20598;-72
2022/09/18 10:46:55;;;;;;;1.52;0.35;;;22.20;50.20;;;;;;5106630;28;20185;-72
2022/09/18 10:49:28;;;;;;;3.78;0.70;;;22.30;50.70;;;;;;5110541;28;20189;-74
2022/09/18 10:52:20;;;;;;;3.45;1.55;;;22.30;50.70;;;;;;5111817;28;20693;-72
2022/09/18 10:55:00;;;;;;;1.73;0.40;;;22.40;50.00;;;;;;5111900;28;20250;-73
2022/09/18 10:57:32;;;;;;;3.00;0.47;;;22.40;49.40;;;;;;5110028;28;20687;-73
2022/09/18 11:00:02;;;;;;;3.20;0.52;;;22.50;48.90;;;;;;5109724;28;20189;-73
2022/09/18 11:02:38;;;;;;;0.50;0.30;;;22.50;48.40;;;;;;5106529;28;20193;-75
2022/09/18 11:05:16;;;;;;;0.75;0.45;;;22.60;49.50;;;;;;5107910;28;20188;-74
2022/09/18 11:07:48;;;;;;;2.20;0.75;;;22.60;48.80;;;;;;5113761;28;20189;-75
2022/09/18 11:10:18;;;;;;;2.28;0.40;;;22.60;48.50;;;;;;5108363;28;20641;-75
2022/09/18 11:12:51;;;;;;;1.67;0.50;;;22.70;48.50;;;;;;5107838;28;20257;-75
2022/09/18 11:15:25;;;;;;;0.73;0.40;;;22.70;48.50;;;;;;5109674;28;20725;-75
2022/09/18 11:17:55;;;;;;;2.80;0.65;;;22.80;48.90;;;;;;5114716;28;20700;-74
2022/09/18 11:20:27;;;;;;;3.08;0.82;;;22.80;48.10;;;;;;5110214;28;20279;-74
2022/09/18 11:23:23;;;;;;;1.52;0.50;;;22.80;47.20;;;;;;5111562;28;20220;-74
2022/09/18 11:26:11;;;;;;;0.98;0.50;;;22.80;47.80;;;;;;5110870;28;20189;-73
2022/09/18 11:28:41;;;;;;;1.08;0.20;;;22.90;48.50;;;;;;5102352;28;20282;-76
2022/09/18 11:31:14;;;;;;;0.63;0.20;;;23.00;48.40;;;;;;5112256;28;20217;-75
2022/09/18 11:33:46;;;;;;;0.73;0.25;;;23.00;48.80;;;;;;5111063;28;20225;-75
2022/09/18 11:36:23;;;;;;;4.07;0.82;;;23.00;49.00;;;;;;5111565;28;20612;-73
2022/09/18 11:38:51;;;;;;;3.45;0.43;;;23.10;49.20;;;;;;5112952;28;22483;-72
2022/09/18 11:41:24;;;;;;;2.83;0.65;;;23.10;48.30;;;;;;5106615;28;21511;-75
2022/09/18 11:44:01;;;;;;;0.40;0.30;;;23.10;48.70;;;;;;5112270;28;20224;-75
2022/09/18 11:46:42;;;;;;;1.40;0.40;;;23.10;48.80;;;;;;5112395;28;20232;-74
2022/09/18 11:49:16;;;;;;;1.65;0.30;;;23.20;48.50;;;;;;5109461;28;20220;-76
2022/09/18 11:51:49;;;;;;;0.20;0.20;;;23.20;48.50;;;;;;5110789;28;20221;-75
2022/09/18 11:54:25;;;;;;;3.03;0.43;;;23.30;48.80;;;;;;5109795;28;20240;-74
2022/09/18 11:56:59;;;;;;;1.67;0.60;;;23.40;48.50;;;;;;5106958;28;20217;-74
2022/09/18 11:59:32;;;;;;;1.63;0.47;;;23.30;48.50;;;;;;5101072;28;20229;-75
2022/09/18 12:02:10;;;;;;;2.28;0.50;;;23.30;48.70;;;;;;5110253;28;20193;-74
2022/09/18 12:04:48;;;;;;;2.63;0.65;;;23.40;49.10;;;;;;5108763;28;20197;-73
2022/09/18 12:07:30;;;;;;;2.60;1.25;;;23.40;48.60;;;;;;5114332;28;20185;-74
2022/09/18 12:10:16;;;;;;;7.25;2.78;;;23.40;48.60;;;;;;5106280;28;20189;-74
2022/09/18 12:12:48;;;;;;;0.93;0.45;;;23.50;48.30;;;;;;5105618;28;20684;-74
2022/09/18 12:15:21;;;;;;;5.45;1.48;;;23.50;48.30;;;;;;5110686;28;20224;-74
2022/09/18 12:17:55;;;;;;;6.15;2.78;;;23.60;48.50;;;;;;5113064;28;20197;-74
2022/09/18 12:20:27;;;;;;;6.65;2.20;;;23.60;48.10;;;;;;5103113;28;20220;-74
2022/09/18 12:22:57;;;;;;;4.65;1.30;;;23.60;47.80;;;;;;5107315;28;20284;-73
2022/09/18 12:25:41;;;;;;;3.40;0.90;;;23.60;47.80;;;;;;5107341;28;20657;-73
2022/09/18 12:28:20;;;;;;;0.82;0.45;;;23.60;47.90;;;;;;5103917;28;20266;-75
2022/09/18 12:30:56;;;;;;;1.85;0.30;;;23.60;48.00;;;;;;5103219;28;20197;-77
2022/09/18 12:33:38;;;;;;;0.80;0.40;;;23.60;47.70;;;;;;5102507;28;20244;-75
2022/09/18 12:36:22;;;;;;;2.67;0.20;;;23.60;48.40;;;;;;5102644;27;20209;-74
2022/09/18 12:39:08;;;;;;;0.20;0.20;;;23.60;48.60;;;;;;5105075;28;20204;-74
2022/09/18 12:41:52;;;;;;;0.77;0.20;;;23.60;48.00;;;;;;5108299;28;20197;-74
2022/09/18 12:44:43;;;;;;;0.75;0.25;;;23.70;47.70;;;;;;5107231;28;20591;-74
2022/09/18 12:47:45;;;;;;;0.60;0.30;;;23.70;47.60;;;;;;5106788;28;20381;-72
2022/09/18 12:50:36;;;;;;;0.82;0.20;;;23.80;47.10;;;;;;5091702;28;20284;-74
2022/09/18 12:53:18;;;;;;;3.85;0.60;;;23.70;47.00;;;;;;5103517;28;20337;-74
2022/09/18 12:56:01;;;;;;;1.33;0.63;;;23.70;47.60;;;;;;5106285;28;20217;-74
2022/09/18 12:58:51;;;;;;;2.55;1.23;;;23.70;47.30;;;;;;5108142;28;20220;-73
2022/09/18 13:01:28;;;;;;;0.68;0.30;;;23.70;47.20;;;;;;5102101;28;20661;-73
2022/09/18 13:04:09;;;;;;;7.30;1.08;;;23.80;47.10;;;;;;5109882;28;20330;-75
2022/09/18 13:06:43;;;;;;;0.25;0.25;;;23.80;46.90;;;;;;5108637;28;20184;-74
2022/09/18 13:09:19;;;;;;;4.53;0.47;;;23.90;46.90;;;;;;5109343;28;20258;-75
2022/09/18 13:11:58;;;;;;;0.88;0.28;;;23.90;46.60;;;;;;5110834;28;20529;-75
2022/09/18 13:14:32;;;;;;;0.98;0.20;;;24.00;46.90;;;;;;5109619;28;20209;-74
2022/09/18 13:17:06;;;;;;;1.60;0.32;;;24.10;46.80;;;;;;5112000;28;20183;-74